首页
METAR-TAF:

METAR-TAF

机场 :

梅德福, 俄勒冈州, 美国

纬度: 42-22-52N, 经度: 122-52-20W, 海拔: 405米

当前天气观测

该预报发布于51分钟前的22:53 UTC
风速3节,风向东转东南
温度 8°C
湿度 76%
气压 1022 hPa
能見度: 16.1公里
天空无云

METAR: KMFR 092253Z 11003KT 10SM CLR 08/04 A3017 RMK AO2 SLP220 T00830039

时间: 15:44 (23:44 UTC)

预报

该预报发布于17分钟前的23:27 UTC
预报有效从10日的 00点(UTC)到 10日的 24点(UTC)
风速2节,风向多变
能見度: 10公里
散云层高于20000英尺
从 10日的 0600点(UTC)
风速节,风向
能見度: 1.6公里
阴天层高于200英尺
轻雾
从 10日的 1200点(UTC)
风速节,风向
能見度: 0.4公里
层高于200英尺
从 10日的 1800点(UTC)
风速节,风向
能見度: 6.4公里
阴天层高于600英尺
轻雾
从 10日的 2100点(UTC)
风速节,风向
能見度: 10公里
散云层高于600英尺
散云层高于2000英尺
阴天层高于8000英尺
从 10日的 2300点(UTC)
风速2节,风向多变
能見度: 10公里
散云层高于3000英尺
阴天层高于4000英尺
小雨

TAF: KMFR 092327Z 1000/1024 VRB02KT P6SM SCT200 FM100600 00000KT 1SM BR OVC002 FM101200 00000KT 1/4SM FG VV002 FM101800 00000KT 4SM BR OVC006 FM102100 00000KT P6SM SCT006 SCT020 OVC080 FM102300 VRB02KT P6SM -RA SCT030 OVC040

超过4000个机场的气象观测和天气预报(METAR&TAF报告)。

可查询的气象台以黄色和红色小点在地图上表示。

将鼠标移到小点上方,可查看气象台名称。

然后点击查看天气观测和预报。

如需切换地图:点击带黑十字的绿色按钮放大地图;点击带横线的绿色按钮缩小地图;或者点击绿色箭头查看邻近地区的地图。


METAR-TAF: